Lake Park, FL (33403)

8:05 AM EDT on September 01, 2014 (GMT -0400)
Rybovich Boat Company | Change Station
CLOSE
Current Station
Personal Weather Station
Location: West Palm Beach, FL
Elevation: 10 ft
Nearby Weather Stations

Elev 10 ft 26.75 °N, 80.05 °W | Updated 1 second ago

Scattered Clouds
Scattered Clouds
84.2 °F
Feels Like 92 °F
N
8.2
Wind Variable Wind from East
Gusts 13.0 mph

Today
High -- | Low -- °F
--% Chance of Precip.
Yesterday
High -- | Low -- °F
Precip. -- in
6:59 AM 7:40 PM
Waxing Crescent, 40% visible
Pressure 30.07 in
Visibility 10.0 miles
Clouds Scattered Clouds 2400 ft
Heat Index 92 °F
Dew Point 75 °F
Humidity 74%
Rainfall 0.00 in
Snow Depth Not available.
UV 1 out of 12
Pollen 5.20 out of 12
PM2.5 Moderate
Flu Activity Not available.
METAR KPBI 011153Z 10008KT 10SM SCT024 29/23 A3007 RMK AO2 SLP181 T02890233 10289 20283 53010 $

More Conditions Fewer Conditions

Pressure 30.07 in
Visibility 10.0 miles
Clouds Scattered Clouds 2400 ft
Heat Index 92 °F
Dew Point 75 °F
Humidity 74%
Rainfall 0.00 in
Snow Depth Not available.
UV 1 out of 12
Pollen 5.20 out of 12
PM2.5 Moderate
Flu Activity Not available.
METAR KPBI 011153Z 10008KT 10SM SCT024 29/23 A3007 RMK AO2 SLP181 T02890233 10289 20283 53010 $

More Conditions Fewer Conditions

10-Day Weather Forecast

Almanac

Astronomy

Sep. 01, 2014 Rise Set
Actual Time 6:59 AM EDT 7:40 PM EDT
Civil Twilight 6:36 AM EDT 8:03 PM EDT
Nautical Twilight 6:08 AM EDT 8:31 PM EDT
Astronomical Twilight 5:40 AM EDT 8:59 PM EDT
Moon 1:07 PM EDT No Moon Set
Length of Visible Light 13h 27m
Length of Day
12h 40m
Tomorrow will be 1m 30s shorter.
Waxing Crescent, 40% of the Moon is Illuminated
Today
Waxing Crescent
Sep 2
First Quarter
Sep 8
Full
Sep 15
Last Quarter
Sep 24
New

Today's Extremes

State Highs State Lows

Community

WunderPhotos

Upload Photos

1,749,193 photos uploaded!

Nearby

Air Quality

  Air Quality AQ Index Pollutant
Yesterday Moderate
PM2.5
Yesterday Good
OZONE
Current Moderate
PM2.5
Monday Good
OZONE
Monday Good
PM2.5

Snow Depth

Station Depth Elevation
No new snow has been reported.

Earthquake Activity

City Distance Mag. Time & Date
No recent earthquake activity has been reported nearby.
Minimum magnitude displayed is 2.5.

Coastal Water Temperatures

Place Temperature
Lake Worth, FL 87.1 °F
Virginia Key, FL 86.0 °F

Nearby Weather Stations